createdAt,value
2023-04-15T00:04:24.196Z,8.6
2023-04-15T00:06:52.446Z,8.6
2023-04-15T00:09:20.708Z,8.6
2023-04-15T00:11:48.962Z,8.2
2023-04-15T00:14:17.222Z,8.4
2023-04-15T00:16:45.479Z,8.5
2023-04-15T00:19:13.735Z,8.6
2023-04-15T00:21:41.985Z,8.5
2023-04-15T00:22:56.717Z,8.6
2023-04-15T00:24:10.271Z,8.7
2023-04-15T00:26:38.523Z,8.6
2023-04-15T00:29:06.777Z,8.7
2023-04-15T00:31:35.041Z,8.7
2023-04-15T00:36:31.552Z,8.6
2023-04-15T00:38:59.806Z,8.6
2023-04-15T00:41:28.065Z,8.7
2023-04-15T00:43:56.318Z,8.7
2023-04-15T00:46:24.580Z,8.7
2023-04-15T00:47:39.308Z,8.8
2023-04-15T00:48:52.854Z,8.8
2023-04-15T00:51:21.116Z,8.8
2023-04-15T00:53:49.371Z,8.6
2023-04-15T00:56:17.627Z,8.6
2023-04-15T00:58:45.885Z,8.7
2023-04-15T01:01:14.143Z,8.5
2023-04-15T01:03:42.393Z,8.4
2023-04-15T01:08:38.911Z,8.6
2023-04-15T01:11:07.167Z,8.5
2023-04-15T01:12:21.896Z,8.3
2023-04-15T01:13:35.446Z,8.3
2023-04-15T01:16:03.702Z,8.3
2023-04-15T01:18:31.956Z,8.4
2023-04-15T01:21:00.217Z,8.5
2023-04-15T01:23:28.468Z,8.1
2023-04-15T01:25:56.728Z,8.3
2023-04-15T01:28:24.990Z,8.2
2023-04-15T01:30:53.244Z,8.5
2023-04-15T01:33:21.501Z,8.3
2023-04-15T01:35:49.759Z,8.4
2023-04-15T01:38:18.017Z,8.4
2023-04-15T01:40:46.269Z,8.4
2023-04-15T01:43:14.526Z,8.6
2023-04-15T01:45:42.781Z,8.8
2023-04-15T01:48:11.042Z,8.7
2023-04-15T01:50:39.293Z,8.7
2023-04-15T01:53:07.555Z,8.7
2023-04-15T01:55:35.809Z,8.9
2023-04-15T01:58:04.069Z,8.8
2023-04-15T02:00:32.329Z,8.8
2023-04-15T02:01:47.078Z,8.8
2023-04-15T02:03:00.619Z,8.9
2023-04-15T02:05:28.882Z,8.9
2023-04-15T02:10:25.394Z,8.8
2023-04-15T02:12:53.645Z,8.8
2023-04-15T02:15:21.909Z,8.5
2023-04-15T02:17:50.162Z,8.6
2023-04-15T02:20:18.418Z,8.8
2023-04-15T02:22:46.678Z,8.8
2023-04-15T02:25:14.928Z,8.9
2023-04-15T02:26:29.664Z,9
2023-04-15T02:27:43.204Z,9
2023-04-15T02:30:11.459Z,8.9
2023-04-15T02:32:39.716Z,8.7
2023-04-15T02:35:07.981Z,8.8
2023-04-15T02:37:36.234Z,8.7
2023-04-15T02:42:32.745Z,8.7
2023-04-15T02:45:01.001Z,8.8
2023-04-15T02:47:29.261Z,8.8
2023-04-15T02:49:57.515Z,8.8
2023-04-15T02:51:12.250Z,8.8
2023-04-15T02:52:25.797Z,8.8
2023-04-15T02:54:54.054Z,8.8
2023-04-15T02:57:22.308Z,8.8
2023-04-15T02:59:50.559Z,8.7
2023-04-15T03:02:18.818Z,8.8
2023-04-15T03:04:47.078Z,8.5
2023-04-15T03:07:15.328Z,8.3
2023-04-15T03:09:43.586Z,8.4
2023-04-15T03:14:40.099Z,8.4
2023-04-15T03:15:54.829Z,8.5
2023-04-15T03:17:08.379Z,8.5
2023-04-15T03:19:36.637Z,8.1
2023-04-15T03:22:04.897Z,8.4
2023-04-15T03:24:33.146Z,8.4
2023-04-15T03:27:01.407Z,8.3
2023-04-15T03:29:29.662Z,8.5
2023-04-15T03:31:57.915Z,8.7
2023-04-15T03:34:26.174Z,8.6
2023-04-15T03:36:54.428Z,8.7
2023-04-15T03:39:22.692Z,8.7
2023-04-15T03:40:37.422Z,8.9
2023-04-15T03:44:19.451Z,8.8
2023-04-15T03:46:47.710Z,8.7
2023-04-15T03:49:15.969Z,8.8
2023-04-15T03:51:44.230Z,8.9
2023-04-15T03:54:12.488Z,8.9
2023-04-15T03:56:40.746Z,8.9
2023-04-15T03:59:08.997Z,8.8
2023-04-15T04:01:37.257Z,8.8
2023-04-15T04:04:05.509Z,8.6
2023-04-15T04:05:20.247Z,8.7
2023-04-15T04:06:33.794Z,8.8
2023-04-15T04:09:02.042Z,8.8
2023-04-15T04:11:30.300Z,9
2023-04-15T04:16:26.813Z,8.6
2023-04-15T04:18:55.077Z,8.6
2023-04-15T04:21:23.331Z,8.7
2023-04-15T04:23:51.593Z,8.7
2023-04-15T04:26:19.847Z,8.7
2023-04-15T04:28:48.101Z,8.7
2023-04-15T04:30:02.831Z,8.7
2023-04-15T04:31:16.383Z,8.5
2023-04-15T04:33:44.637Z,8.6
2023-04-15T04:36:12.896Z,8.7
2023-04-15T04:38:41.151Z,8.8
2023-04-15T04:41:09.403Z,8.6
2023-04-15T04:43:37.662Z,8.7
2023-04-15T04:48:34.176Z,8.9
2023-04-15T04:51:02.438Z,8.6
2023-04-15T04:53:30.695Z,8.6
2023-04-15T04:54:45.427Z,8.7
2023-04-15T04:55:58.970Z,8.7
2023-04-15T04:58:27.223Z,8.7
2023-04-15T05:00:55.483Z,8.7
2023-04-15T05:03:23.744Z,8.5
2023-04-15T05:05:51.995Z,8.7
2023-04-15T05:08:20.252Z,8.8
2023-04-15T05:10:48.510Z,8.9
2023-04-15T05:13:16.769Z,8.7
2023-04-15T05:15:45.024Z,8.7
2023-04-15T05:19:28.016Z,8.9
2023-04-15T05:20:41.564Z,8.9
2023-04-15T05:23:09.816Z,8.8
2023-04-15T05:25:38.076Z,8.9
2023-04-15T05:28:06.336Z,8.8
2023-04-15T05:30:34.592Z,8.9
2023-04-15T05:33:02.849Z,9
2023-04-15T05:35:31.107Z,9.1
2023-04-15T05:37:59.357Z,8.9
2023-04-15T05:40:27.619Z,8.7
2023-04-15T05:42:55.878Z,8.7
2023-04-15T05:44:10.599Z,8.6
2023-04-15T05:45:24.150Z,8.6
2023-04-15T05:50:20.663Z,8.6
2023-04-15T05:52:48.920Z,8.9
2023-04-15T05:55:17.178Z,9
2023-04-15T05:57:45.438Z,9.1
2023-04-15T06:00:13.696Z,8.6
2023-04-15T06:02:41.946Z,8.7
2023-04-15T06:05:10.210Z,8.7
2023-04-15T06:07:38.465Z,8.9
2023-04-15T06:08:53.196Z,9
2023-04-15T06:10:06.736Z,8.9
2023-04-15T06:12:34.997Z,8.8
2023-04-15T06:15:03.257Z,9
2023-04-15T06:17:31.506Z,9.1
2023-04-15T06:22:28.028Z,8.7
2023-04-15T06:24:56.277Z,8.9
2023-04-15T06:27:24.541Z,9
2023-04-15T06:29:52.794Z,9.1
2023-04-15T06:32:21.056Z,9.2
2023-04-15T06:33:35.780Z,9.1
2023-04-15T06:34:49.330Z,8.7
2023-04-15T06:37:17.583Z,8.9
2023-04-15T06:39:45.844Z,9.1
2023-04-15T06:42:14.104Z,9.3
2023-04-15T06:44:42.353Z,9.2
2023-04-15T06:47:10.610Z,9.3
2023-04-15T06:49:38.876Z,9.1
2023-04-15T06:54:35.390Z,9
2023-04-15T06:57:03.643Z,9.2
2023-04-15T06:58:18.373Z,9
2023-04-15T06:59:31.923Z,8.8
2023-04-15T07:02:00.173Z,8.9
2023-04-15T07:04:28.436Z,9
2023-04-15T07:06:56.688Z,9
2023-04-15T07:09:24.948Z,9.2
2023-04-15T07:11:53.204Z,9.2
2023-04-15T07:14:21.465Z,8.9
2023-04-15T07:16:49.723Z,8.9
2023-04-15T07:19:17.977Z,8.7
2023-04-15T07:21:46.233Z,9
2023-04-15T07:24:14.495Z,9.2
2023-04-15T07:26:42.755Z,9.2
2023-04-15T07:29:11.011Z,9.2
2023-04-15T07:31:39.268Z,9.1
2023-04-15T07:34:07.519Z,9.1
2023-04-15T07:36:35.782Z,9.1
2023-04-15T07:39:04.038Z,9.3
2023-04-15T07:41:32.296Z,9.2
2023-04-15T07:44:00.555Z,9.3
2023-04-15T07:46:28.809Z,9.3
2023-04-15T07:47:43.560Z,8.8
2023-04-15T07:48:57.102Z,8.7
2023-04-15T07:51:25.364Z,8.7
2023-04-15T07:56:21.880Z,8.7
2023-04-15T07:58:50.136Z,9.2
2023-04-15T08:01:18.392Z,9.4
2023-04-15T08:03:46.645Z,9.4
2023-04-15T08:06:14.908Z,9.4
2023-04-15T08:08:43.162Z,9.3
2023-04-15T08:11:11.414Z,9.5
2023-04-15T08:12:26.197Z,9.4
2023-04-15T08:13:39.690Z,9.3
2023-04-15T08:16:07.951Z,9.3
2023-04-15T08:18:36.213Z,9.5
2023-04-15T08:21:04.471Z,9.8
2023-04-15T08:23:32.730Z,9.7
2023-04-15T08:28:29.235Z,9.6
2023-04-15T08:30:57.500Z,9.8
2023-04-15T08:33:25.754Z,9.7
2023-04-15T08:35:54.008Z,9.3
2023-04-15T08:37:08.736Z,9.4
2023-04-15T08:38:22.286Z,9.3
2023-04-15T08:40:50.541Z,9.3
2023-04-15T08:43:18.805Z,9.3
2023-04-15T08:45:47.059Z,9.7
2023-04-15T08:48:15.319Z,9.7
2023-04-15T08:50:43.576Z,9.7
2023-04-15T08:53:11.826Z,9.6
2023-04-15T08:55:40.092Z,9.8
2023-04-15T09:00:36.604Z,9.6
2023-04-15T09:01:51.336Z,9.8
2023-04-15T09:03:04.878Z,9.9
2023-04-15T09:05:33.133Z,9.6
2023-04-15T09:08:01.390Z,9.7
2023-04-15T09:10:29.648Z,9.9
2023-04-15T09:12:57.906Z,9.9
2023-04-15T09:15:26.158Z,10.1
2023-04-15T09:17:54.418Z,10.2
2023-04-15T09:20:22.673Z,10.4
2023-04-15T09:22:50.937Z,10.6
2023-04-15T09:25:19.189Z,10.9
2023-04-15T09:26:33.924Z,11.1
2023-04-15T09:30:15.956Z,11
2023-04-15T09:32:44.212Z,10.7
2023-04-15T09:35:12.472Z,10.9
2023-04-15T09:37:40.722Z,11.1
2023-04-15T09:40:08.978Z,11.2
2023-04-15T09:42:37.238Z,11.1
2023-04-15T09:45:05.503Z,11
2023-04-15T09:47:33.754Z,11.1
2023-04-15T09:50:02.013Z,11.5
2023-04-15T09:51:16.736Z,11.7
2023-04-15T09:52:30.286Z,11.5
2023-04-15T09:54:58.542Z,11.4
2023-04-15T09:57:26.798Z,11.6
2023-04-15T10:02:23.315Z,11.5
2023-04-15T10:04:51.567Z,12.1
2023-04-15T10:07:19.827Z,12.5
2023-04-15T10:09:48.083Z,12.8
2023-04-15T10:12:16.339Z,12.1
2023-04-15T10:14:44.594Z,12.7
2023-04-15T10:15:59.325Z,12.7
2023-04-15T10:17:12.874Z,12.5
2023-04-15T10:19:41.133Z,12.8
2023-04-15T10:22:09.384Z,13.3
2023-04-15T10:24:37.649Z,12.9
2023-04-15T10:27:05.898Z,12.5
2023-04-15T10:29:34.162Z,13.3
2023-04-15T10:34:30.672Z,13
2023-04-15T10:36:58.922Z,13.6
2023-04-15T10:39:27.187Z,14.1
2023-04-15T10:40:41.915Z,14.5
2023-04-15T10:41:55.458Z,14.1
2023-04-15T10:44:23.721Z,13.6
2023-04-15T10:46:51.971Z,13.4
2023-04-15T10:49:20.235Z,13.8
2023-04-15T10:51:48.491Z,13.4
2023-04-15T10:54:16.745Z,13.4
2023-04-15T10:56:45.003Z,13.4
2023-04-15T10:59:13.260Z,13.8
2023-04-15T11:01:41.512Z,14.3
2023-04-15T11:05:24.504Z,13.6
2023-04-15T11:06:38.044Z,13.4
2023-04-15T11:09:06.310Z,13.5
2023-04-15T11:11:34.566Z,13.3
2023-04-15T11:14:02.820Z,13.5
2023-04-15T11:16:31.077Z,13.5
2023-04-15T11:18:59.327Z,13.6
2023-04-15T11:21:27.588Z,13.5
2023-04-15T11:23:55.843Z,13.3
2023-04-15T11:26:24.107Z,13.2
2023-04-15T11:28:52.363Z,13.2
2023-04-15T11:30:07.091Z,13.1
2023-04-15T11:31:20.633Z,13.1
2023-04-15T11:36:17.143Z,13.1
2023-04-15T11:38:45.403Z,13.1
2023-04-15T11:41:13.662Z,13.3
2023-04-15T11:43:41.914Z,13.3
2023-04-15T11:46:10.172Z,13.3
2023-04-15T11:48:38.426Z,13.5
2023-04-15T11:51:06.686Z,13.3
2023-04-15T11:53:34.948Z,13.3
2023-04-15T11:54:49.673Z,13.3
2023-04-15T11:56:03.216Z,13.3
2023-04-15T11:58:31.477Z,13.4
2023-04-15T12:00:59.737Z,13.4
2023-04-15T12:03:27.991Z,13.4
2023-04-15T12:08:24.507Z,13.3
2023-04-15T12:10:52.756Z,13.2
2023-04-15T12:13:21.014Z,13.2
2023-04-15T12:15:49.274Z,13.2
2023-04-15T12:18:17.524Z,13.3
2023-04-15T12:19:32.256Z,13.4
2023-04-15T12:20:45.808Z,13.5
2023-04-15T12:23:14.060Z,13.4
2023-04-15T12:25:42.316Z,13.2
2023-04-15T12:28:10.570Z,13.3
2023-04-15T12:30:38.830Z,13.2
2023-04-15T12:33:07.092Z,13.2
2023-04-15T12:35:35.342Z,13.1
2023-04-15T12:40:31.859Z,13.2
2023-04-15T12:43:00.108Z,13.2
2023-04-15T12:44:14.842Z,13.7
2023-04-15T12:45:28.394Z,13.8
2023-04-15T12:47:56.642Z,13.9
2023-04-15T12:50:24.905Z,13.8
2023-04-15T12:52:53.161Z,13.6
2023-04-15T12:55:21.419Z,13.6
2023-04-15T12:57:49.670Z,13.5
2023-04-15T13:00:17.925Z,13.4
2023-04-15T13:02:46.187Z,13.4
2023-04-15T13:05:14.441Z,13.5
2023-04-15T13:07:42.699Z,13.5
2023-04-15T13:10:10.959Z,13.5
2023-04-15T13:12:39.216Z,13.4
2023-04-15T13:15:07.468Z,13.5
2023-04-15T13:17:35.726Z,13.6
2023-04-15T13:20:03.986Z,13.5
2023-04-15T13:22:32.237Z,13.7
2023-04-15T13:25:00.496Z,13.6
2023-04-15T13:27:28.752Z,13.5
2023-04-15T13:29:57.008Z,13.6
2023-04-15T13:32:25.264Z,13.5
2023-04-15T13:33:40.008Z,13.8
2023-04-15T13:34:53.558Z,13.7
2023-04-15T13:37:21.814Z,13.7
2023-04-15T13:42:18.328Z,13.5
2023-04-15T13:44:46.581Z,13.5
2023-04-15T13:47:14.843Z,13.5
2023-04-15T13:49:43.099Z,13.6
2023-04-15T13:52:11.349Z,13.7
2023-04-15T13:54:39.607Z,13.6
2023-04-15T13:57:07.869Z,13.8
2023-04-15T13:58:22.598Z,13.8
2023-04-15T13:59:36.140Z,14
2023-04-15T14:02:04.395Z,14.1
2023-04-15T14:04:32.653Z,14.2
2023-04-15T14:07:00.908Z,14.1
2023-04-15T14:09:29.168Z,13.8
2023-04-15T14:14:25.686Z,13.7
2023-04-15T14:16:53.940Z,13.7
2023-04-15T14:19:22.193Z,13.7
2023-04-15T14:21:50.453Z,13.9
2023-04-15T14:23:05.183Z,13.7
2023-04-15T14:24:18.729Z,13.8
2023-04-15T14:26:46.980Z,13.8
2023-04-15T14:29:15.240Z,13.9
2023-04-15T14:31:43.500Z,13.7
2023-04-15T14:34:11.750Z,13.8
2023-04-15T14:36:40.012Z,13.6
2023-04-15T14:39:08.264Z,13.9
2023-04-15T14:41:36.526Z,13.9
2023-04-15T14:46:33.034Z,14
2023-04-15T14:47:47.762Z,13.9
2023-04-15T14:49:01.306Z,13.9
2023-04-15T14:51:29.566Z,13.8
2023-04-15T14:53:57.826Z,14
2023-04-15T14:56:26.083Z,14
2023-04-15T14:58:54.335Z,13.9
2023-04-15T15:01:22.589Z,13.4
2023-04-15T15:03:50.849Z,13.3
2023-04-15T15:06:19.109Z,13.1
2023-04-15T15:08:47.365Z,13.2
2023-04-15T15:11:15.619Z,13.3
2023-04-15T15:12:30.351Z,13.5
2023-04-15T15:16:12.385Z,13.5
2023-04-15T15:18:40.638Z,13.5
2023-04-15T15:21:08.893Z,13.2
2023-04-15T15:23:37.151Z,13.2
2023-04-15T15:26:05.407Z,13.1
2023-04-15T15:28:33.666Z,12.8
2023-04-15T15:31:01.920Z,13
2023-04-15T15:33:30.181Z,12.9
2023-04-15T15:35:58.435Z,12.7
2023-04-15T15:37:13.163Z,12.8
2023-04-15T15:38:26.715Z,12.9
2023-04-15T15:40:54.970Z,12.9
2023-04-15T15:43:23.222Z,12.9
2023-04-15T15:48:19.742Z,12.9
2023-04-15T15:50:48.001Z,13.1
2023-04-15T15:53:16.257Z,13.2
2023-04-15T15:55:44.515Z,13.4
2023-04-15T15:58:12.763Z,13.2
2023-04-15T16:00:41.027Z,13.2
2023-04-15T16:01:55.755Z,12.7
2023-04-15T16:03:09.305Z,12.8
2023-04-15T16:05:37.558Z,12.8
2023-04-15T16:08:05.817Z,12.7
2023-04-15T16:10:34.076Z,12.6
2023-04-15T16:13:02.328Z,12.8
2023-04-15T16:15:30.589Z,12.7
2023-04-15T16:20:27.097Z,12.6
2023-04-15T16:22:55.357Z,12.7
2023-04-15T16:25:23.613Z,12.8
2023-04-15T16:26:38.337Z,12.5
2023-04-15T16:27:51.889Z,12.5
2023-04-15T16:30:20.146Z,12.6
2023-04-15T16:32:48.397Z,12.4
2023-04-15T16:35:16.656Z,12.5
2023-04-15T16:37:44.915Z,12.8
2023-04-15T16:40:13.168Z,12.4
2023-04-15T16:42:41.428Z,12.5
2023-04-15T16:45:09.689Z,12.3
2023-04-15T16:47:37.942Z,12.2
2023-04-15T16:51:20.927Z,12.2
2023-04-15T16:52:34.477Z,12.2
2023-04-15T16:55:02.731Z,12.2
2023-04-15T16:57:30.997Z,12.1
2023-04-15T16:59:59.242Z,12.1
2023-04-15T17:02:27.504Z,12
2023-04-15T17:04:55.760Z,12.1
2023-04-15T17:07:24.014Z,12
2023-04-15T17:09:52.274Z,12
2023-04-15T17:12:20.526Z,12.1
2023-04-15T17:14:48.787Z,12
2023-04-15T17:16:03.517Z,12
2023-04-15T17:17:17.057Z,11.9
2023-04-15T17:22:13.573Z,11.9
2023-04-15T17:24:41.835Z,11.9
2023-04-15T17:27:10.087Z,11.8
2023-04-15T17:29:38.343Z,11.7
2023-04-15T17:32:06.603Z,11.7
2023-04-15T17:34:34.859Z,11.8
2023-04-15T17:37:03.112Z,11.4
2023-04-15T17:39:31.374Z,11.5
2023-04-15T17:40:46.106Z,11.7
2023-04-15T17:41:59.650Z,11.7
2023-04-15T17:44:27.912Z,11.7
2023-04-15T17:46:56.166Z,11.6
2023-04-15T17:49:24.424Z,11.3
2023-04-15T17:54:20.936Z,11.4
2023-04-15T17:56:49.191Z,11.5
2023-04-15T17:59:17.451Z,11.2
2023-04-15T18:01:45.703Z,11.1
2023-04-15T18:04:13.965Z,10.8
2023-04-15T18:05:28.694Z,10.8
2023-04-15T18:06:42.241Z,10.8
2023-04-15T18:09:10.497Z,10.8
2023-04-15T18:11:38.751Z,10.8
2023-04-15T18:14:07.007Z,10.7
2023-04-15T18:16:35.261Z,10.9
2023-04-15T18:19:03.525Z,10.8
2023-04-15T18:21:31.776Z,10.7
2023-04-15T18:26:28.294Z,10.7
2023-04-15T18:28:56.551Z,10.6
2023-04-15T18:30:11.276Z,10.5
2023-04-15T18:31:24.825Z,10.6
2023-04-15T18:33:53.082Z,10.5
2023-04-15T18:36:21.341Z,10.4
2023-04-15T18:38:49.595Z,10.4
2023-04-15T18:41:17.849Z,10.4
2023-04-15T18:43:46.105Z,10.3
2023-04-15T18:46:14.363Z,10.3
2023-04-15T18:48:42.621Z,10.4
2023-04-15T18:51:10.881Z,10.3
2023-04-15T18:53:39.137Z,10.3
2023-04-15T18:56:07.400Z,10.4
2023-04-15T18:58:35.650Z,10.4
2023-04-15T19:01:03.911Z,10.3
2023-04-15T19:03:32.167Z,10.3
2023-04-15T19:06:00.427Z,10.2
2023-04-15T19:08:28.678Z,10.3
2023-04-15T19:10:56.935Z,10.2
2023-04-15T19:13:25.196Z,10.2
2023-04-15T19:15:53.452Z,10.2
2023-04-15T19:18:21.701Z,10.2
2023-04-15T19:19:36.453Z,10.2
2023-04-15T19:20:50.002Z,10.3
2023-04-15T19:23:18.256Z,10.2
2023-04-15T19:28:14.774Z,10.2
2023-04-15T19:30:43.028Z,10.2
2023-04-15T19:33:11.294Z,10.2
2023-04-15T19:35:39.539Z,10.3
2023-04-15T19:38:07.797Z,10.5
2023-04-15T19:40:36.055Z,10.2
2023-04-15T19:43:04.307Z,10.1
2023-04-15T19:44:19.039Z,10
2023-04-15T19:45:32.583Z,10
2023-04-15T19:48:00.845Z,9.9
2023-04-15T19:50:29.102Z,9.9
2023-04-15T19:52:57.353Z,9.9
2023-04-15T19:55:25.608Z,9.9
2023-04-15T20:00:22.123Z,9.8
2023-04-15T20:02:50.386Z,9.8
2023-04-15T20:05:18.640Z,9.8
2023-04-15T20:07:46.899Z,9.8
2023-04-15T20:09:01.630Z,9.7
2023-04-15T20:10:15.169Z,9.7
2023-04-15T20:12:43.432Z,9.8
2023-04-15T20:15:11.686Z,9.7
2023-04-15T20:17:39.943Z,9.7
2023-04-15T20:20:08.205Z,9.6
2023-04-15T20:22:36.460Z,9.8
2023-04-15T20:25:04.716Z,9.6
2023-04-15T20:27:32.974Z,9.6
2023-04-15T20:32:29.489Z,9.6
2023-04-15T20:33:44.216Z,9.6
2023-04-15T20:34:57.763Z,9.7
2023-04-15T20:37:26.020Z,9.8
2023-04-15T20:39:54.280Z,9.8
2023-04-15T20:42:22.529Z,9.7
2023-04-15T20:44:50.795Z,9.5
2023-04-15T20:47:19.047Z,9.4
2023-04-15T20:49:47.304Z,9.4
2023-04-15T20:52:15.562Z,9.4
2023-04-15T20:54:43.820Z,9.5
2023-04-15T20:57:12.080Z,9.6
2023-04-15T20:58:26.809Z,9.7
2023-04-15T21:02:08.846Z,9.7
2023-04-15T21:04:37.100Z,9.5
2023-04-15T21:07:05.357Z,9.4
2023-04-15T21:09:33.615Z,9.3
2023-04-15T21:12:01.873Z,9.2
2023-04-15T21:14:30.125Z,9.3
2023-04-15T21:16:58.380Z,9.2
2023-04-15T21:19:26.636Z,9.2
2023-04-15T21:21:54.902Z,9.2
2023-04-15T21:23:09.628Z,9.1
2023-04-15T21:24:23.172Z,9.1
2023-04-15T21:26:51.432Z,9.3
2023-04-15T21:29:19.687Z,9.2
2023-04-15T21:34:16.255Z,9
2023-04-15T21:36:44.463Z,9.2
2023-04-15T21:39:12.715Z,9.1
2023-04-15T21:41:40.971Z,9
2023-04-15T21:44:09.236Z,9.2
2023-04-15T21:46:37.487Z,9.1
2023-04-15T21:47:52.220Z,9.1
2023-04-15T21:49:05.763Z,9
2023-04-15T21:51:34.019Z,9
2023-04-15T21:54:02.284Z,9
2023-04-15T21:56:30.542Z,9
2023-04-15T21:58:58.799Z,9
2023-04-15T22:01:27.056Z,9.1
2023-04-15T22:06:23.561Z,9
2023-04-15T22:08:51.826Z,8.9
2023-04-15T22:11:20.085Z,8.9
2023-04-15T22:12:34.808Z,9
2023-04-15T22:13:48.357Z,9
2023-04-15T22:16:16.610Z,9
2023-04-15T22:18:44.867Z,9.2
2023-04-15T22:21:13.133Z,9.2
2023-04-15T22:23:41.385Z,9
2023-04-15T22:26:09.643Z,8.9
2023-04-15T22:28:37.897Z,8.9
2023-04-15T22:31:06.157Z,9
2023-04-15T22:33:34.419Z,8.9
2023-04-15T22:37:17.401Z,8.9
2023-04-15T22:38:30.953Z,9.2
2023-04-15T22:40:59.210Z,9
2023-04-15T22:43:27.464Z,9.2
2023-04-15T22:45:55.717Z,9.3
2023-04-15T22:48:23.975Z,9.5
2023-04-15T22:50:52.233Z,9.7
2023-04-15T22:53:20.490Z,9.1
2023-04-15T22:55:48.754Z,8.9
2023-04-15T22:58:17.008Z,9.3
2023-04-15T23:00:45.266Z,9.7
2023-04-15T23:01:59.991Z,9.3
2023-04-15T23:03:13.541Z,9.3
2023-04-15T23:08:10.053Z,9.4
2023-04-15T23:10:38.309Z,9
2023-04-15T23:13:06.565Z,8.9
2023-04-15T23:15:34.827Z,8.9
2023-04-15T23:18:03.083Z,8.6
2023-04-15T23:20:31.336Z,8.7
2023-04-15T23:22:59.593Z,9
2023-04-15T23:25:27.859Z,9
2023-04-15T23:26:42.585Z,9.1
2023-04-15T23:27:56.127Z,9.2
2023-04-15T23:30:24.391Z,9.4
2023-04-15T23:32:52.645Z,9.4
2023-04-15T23:35:20.900Z,9.5
2023-04-15T23:40:17.420Z,9.5
2023-04-15T23:42:45.672Z,9.3
2023-04-15T23:45:13.933Z,9.4
2023-04-15T23:47:42.190Z,9.6
2023-04-15T23:50:10.450Z,9.8
2023-04-15T23:51:25.180Z,9.4
2023-04-15T23:52:38.720Z,8.9
2023-04-15T23:55:06.976Z,8.9
2023-04-15T23:57:35.236Z,9.2
